createdAt,value
2022-12-19T00:00:44.000Z,16000.0
2022-12-19T00:01:43.000Z,16000.0
2022-12-19T00:02:43.000Z,16000.0
2022-12-19T00:03:44.000Z,16000.0
2022-12-19T00:04:43.000Z,16000.0
2022-12-19T00:05:43.000Z,16000.0
2022-12-19T00:06:44.000Z,16000.0
2022-12-19T00:07:43.000Z,15483.0
2022-12-19T00:08:44.000Z,15584.0
2022-12-19T00:09:43.000Z,16000.0
2022-12-19T00:10:43.000Z,16000.0
2022-12-19T00:11:44.000Z,16000.0
2022-12-19T00:12:43.000Z,16000.0
2022-12-19T00:13:43.000Z,16000.0
2022-12-19T00:14:44.000Z,15769.0
2022-12-19T00:15:43.000Z,15546.0
2022-12-19T00:16:44.000Z,16000.0
2022-12-19T00:17:43.000Z,15007.0
2022-12-19T00:18:43.000Z,14026.0
2022-12-19T00:19:44.000Z,14041.0
2022-12-19T00:20:43.000Z,14337.0
2022-12-19T00:21:43.000Z,14285.0
2022-12-19T00:22:44.000Z,14963.0
2022-12-19T00:23:43.000Z,14127.0
2022-12-19T00:24:44.000Z,14701.0
2022-12-19T00:25:43.000Z,13526.0
2022-12-19T00:26:43.000Z,13756.0
2022-12-19T00:27:44.000Z,14682.0
2022-12-19T00:28:43.000Z,15031.0
2022-12-19T00:29:44.000Z,14044.0
2022-12-19T00:30:43.000Z,12974.0
2022-12-19T00:31:43.000Z,12956.0
2022-12-19T00:32:44.000Z,14931.0
2022-12-19T00:33:43.000Z,14748.0
2022-12-19T00:34:43.000Z,14124.0
2022-12-19T00:35:44.000Z,14855.0
2022-12-19T00:36:43.000Z,14708.0
2022-12-19T00:37:44.000Z,14894.0
2022-12-19T00:38:43.000Z,15256.0
2022-12-19T00:39:43.000Z,14009.0
2022-12-19T00:40:44.000Z,13186.0
2022-12-19T00:41:43.000Z,12929.0
2022-12-19T00:42:44.000Z,13261.0
2022-12-19T00:43:43.000Z,13332.0
2022-12-19T00:44:43.000Z,14610.0
2022-12-19T00:45:44.000Z,14317.0
2022-12-19T00:46:43.000Z,14415.0
2022-12-19T00:47:43.000Z,13374.0
2022-12-19T00:48:44.000Z,14463.0
2022-12-19T00:49:43.000Z,13042.0
2022-12-19T00:50:44.000Z,13140.0
2022-12-19T00:51:43.000Z,14083.0
2022-12-19T00:52:43.000Z,13647.0
2022-12-19T00:53:44.000Z,13250.0
2022-12-19T00:54:43.000Z,12740.0
2022-12-19T00:55:44.000Z,13757.0
2022-12-19T00:56:43.000Z,13657.0
2022-12-19T00:57:43.000Z,15223.0
2022-12-19T00:58:44.000Z,16000.0
2022-12-19T00:59:43.000Z,15056.0
2022-12-19T01:00:43.000Z,14921.0
2022-12-19T01:01:44.000Z,14353.0
2022-12-19T01:02:43.000Z,14209.0
2022-12-19T01:03:43.000Z,14595.0
2022-12-19T01:04:44.000Z,14889.0
2022-12-19T01:05:43.000Z,15191.0
2022-12-19T01:06:44.000Z,14437.0
2022-12-19T01:07:43.000Z,14149.0
2022-12-19T01:08:43.000Z,14377.0
2022-12-19T01:09:44.000Z,15332.0
2022-12-19T01:10:43.000Z,14473.0
2022-12-19T01:11:43.000Z,15211.0
2022-12-19T01:12:44.000Z,14913.0
2022-12-19T01:13:43.000Z,16000.0
2022-12-19T01:14:44.000Z,16000.0
2022-12-19T01:15:43.000Z,16000.0
2022-12-19T01:16:43.000Z,16000.0
2022-12-19T01:17:44.000Z,16000.0
2022-12-19T01:18:43.000Z,16000.0
2022-12-19T01:19:44.000Z,16000.0
2022-12-19T01:20:44.000Z,15384.0
2022-12-19T01:21:43.000Z,16000.0
2022-12-19T01:22:44.000Z,16000.0
2022-12-19T01:23:43.000Z,16000.0
2022-12-19T01:24:43.000Z,16000.0
2022-12-19T01:25:44.000Z,16000.0
2022-12-19T01:26:43.000Z,16000.0
2022-12-19T01:27:44.000Z,16000.0
2022-12-19T01:28:43.000Z,16000.0
2022-12-19T01:29:43.000Z,16000.0
2022-12-19T01:30:44.000Z,16000.0
2022-12-19T01:31:43.000Z,16000.0
2022-12-19T01:32:43.000Z,16000.0
2022-12-19T01:33:44.000Z,16000.0
2022-12-19T01:34:43.000Z,16000.0
2022-12-19T01:35:44.000Z,16000.0
2022-12-19T01:36:43.000Z,16000.0
2022-12-19T01:37:43.000Z,14928.0
2022-12-19T01:38:44.000Z,15732.0
2022-12-19T01:39:43.000Z,14958.0
2022-12-19T01:40:44.000Z,16000.0
2022-12-19T01:41:43.000Z,16000.0
2022-12-19T01:42:43.000Z,16000.0
2022-12-19T01:43:44.000Z,16000.0
2022-12-19T01:44:43.000Z,16000.0
2022-12-19T01:45:43.000Z,16000.0
2022-12-19T01:46:44.000Z,16000.0
2022-12-19T01:47:43.000Z,16000.0
2022-12-19T01:48:44.000Z,16000.0
2022-12-19T01:49:43.000Z,16000.0
2022-12-19T01:50:43.000Z,16000.0
2022-12-19T01:51:44.000Z,16000.0
2022-12-19T01:52:43.000Z,16000.0
2022-12-19T01:53:44.000Z,16000.0
2022-12-19T01:54:43.000Z,16000.0
2022-12-19T01:55:43.000Z,16000.0
2022-12-19T01:56:44.000Z,16000.0
2022-12-19T01:57:43.000Z,16000.0
2022-12-19T01:58:43.000Z,16000.0
2022-12-19T01:59:44.000Z,16000.0
2022-12-19T02:00:43.000Z,16000.0
2022-12-19T02:01:43.000Z,16000.0
2022-12-19T02:02:44.000Z,16000.0
2022-12-19T02:03:43.000Z,16000.0
2022-12-19T02:04:44.000Z,16000.0
2022-12-19T02:05:43.000Z,16000.0
2022-12-19T02:06:43.000Z,16000.0
2022-12-19T02:07:44.000Z,16000.0
2022-12-19T02:08:43.000Z,16000.0
2022-12-19T02:09:43.000Z,16000.0
2022-12-19T02:10:44.000Z,16000.0
2022-12-19T02:11:43.000Z,16000.0
2022-12-19T02:12:44.000Z,16000.0
2022-12-19T02:13:43.000Z,16000.0
2022-12-19T02:14:43.000Z,16000.0
2022-12-19T02:15:44.000Z,16000.0
2022-12-19T02:16:43.000Z,16000.0
2022-12-19T02:17:44.000Z,16000.0
2022-12-19T02:18:43.000Z,16000.0
2022-12-19T02:19:43.000Z,16000.0
2022-12-19T02:20:44.000Z,16000.0
2022-12-19T02:21:43.000Z,16000.0
2022-12-19T02:22:43.000Z,16000.0
2022-12-19T02:23:44.000Z,16000.0
2022-12-19T02:24:43.000Z,16000.0
2022-12-19T02:25:44.000Z,16000.0
2022-12-19T02:26:43.000Z,16000.0
2022-12-19T02:27:43.000Z,16000.0
2022-12-19T02:28:44.000Z,16000.0
2022-12-19T02:29:43.000Z,16000.0
2022-12-19T02:30:44.000Z,16000.0
2022-12-19T02:31:44.000Z,16000.0
2022-12-19T02:32:43.000Z,16000.0
2022-12-19T02:33:44.000Z,16000.0
2022-12-19T02:34:43.000Z,16000.0
2022-12-19T02:35:43.000Z,16000.0
2022-12-19T02:36:44.000Z,16000.0
2022-12-19T02:37:43.000Z,16000.0
2022-12-19T02:38:44.000Z,16000.0
2022-12-19T02:39:43.000Z,16000.0
2022-12-19T02:40:43.000Z,16000.0
2022-12-19T02:41:44.000Z,16000.0
2022-12-19T02:42:43.000Z,16000.0
2022-12-19T02:43:44.000Z,16000.0
2022-12-19T02:44:43.000Z,16000.0
2022-12-19T02:45:43.000Z,16000.0
2022-12-19T02:46:44.000Z,16000.0
2022-12-19T02:47:43.000Z,16000.0
2022-12-19T02:48:43.000Z,16000.0
2022-12-19T02:49:44.000Z,16000.0
2022-12-19T02:50:43.000Z,16000.0
2022-12-19T02:51:44.000Z,16000.0
2022-12-19T02:52:43.000Z,16000.0
2022-12-19T02:53:43.000Z,16000.0
2022-12-19T02:54:44.000Z,15520.0
2022-12-19T02:55:43.000Z,16000.0
2022-12-19T02:56:43.000Z,16000.0
2022-12-19T02:57:44.000Z,16000.0
2022-12-19T02:58:43.000Z,16000.0
2022-12-19T02:59:44.000Z,16000.0
2022-12-19T03:00:43.000Z,15432.0
2022-12-19T03:01:43.000Z,15468.0
2022-12-19T03:02:44.000Z,15963.0
2022-12-19T03:03:43.000Z,16000.0
2022-12-19T03:04:43.000Z,16000.0
2022-12-19T03:05:44.000Z,16000.0
2022-12-19T03:06:43.000Z,16000.0
2022-12-19T03:07:44.000Z,16000.0
2022-12-19T03:08:43.000Z,16000.0
2022-12-19T03:09:43.000Z,16000.0
2022-12-19T03:10:44.000Z,16000.0
2022-12-19T03:11:43.000Z,16000.0
2022-12-19T03:12:43.000Z,16000.0
2022-12-19T03:13:44.000Z,16000.0
2022-12-19T03:14:43.000Z,16000.0
2022-12-19T03:15:44.000Z,16000.0
2022-12-19T03:16:43.000Z,16000.0
2022-12-19T03:17:43.000Z,16000.0
2022-12-19T03:18:44.000Z,15067.0
2022-12-19T03:19:43.000Z,14397.0
2022-12-19T03:20:44.000Z,15291.0
2022-12-19T03:21:44.000Z,16000.0
2022-12-19T03:22:43.000Z,16000.0
2022-12-19T03:23:44.000Z,16000.0
2022-12-19T03:24:43.000Z,16000.0
2022-12-19T03:25:43.000Z,16000.0
2022-12-19T03:26:44.000Z,16000.0
2022-12-19T03:27:43.000Z,15559.0
2022-12-19T03:28:44.000Z,15994.0
2022-12-19T03:29:43.000Z,16000.0
2022-12-19T03:30:43.000Z,16000.0
2022-12-19T03:31:44.000Z,15879.0
2022-12-19T03:32:43.000Z,15513.0
2022-12-19T03:33:43.000Z,14336.0
2022-12-19T03:34:44.000Z,14826.0
2022-12-19T03:35:43.000Z,15453.0
2022-12-19T03:36:44.000Z,16000.0
2022-12-19T03:37:43.000Z,14721.0
2022-12-19T03:38:43.000Z,16000.0
2022-12-19T03:39:44.000Z,16000.0
2022-12-19T03:40:43.000Z,16000.0
2022-12-19T03:41:44.000Z,16000.0
2022-12-19T03:42:43.000Z,16000.0
2022-12-19T03:43:43.000Z,16000.0
2022-12-19T03:44:44.000Z,16000.0
2022-12-19T03:45:43.000Z,16000.0
2022-12-19T03:46:43.000Z,16000.0
2022-12-19T03:47:44.000Z,16000.0
2022-12-19T03:48:43.000Z,16000.0
2022-12-19T03:49:44.000Z,16000.0
2022-12-19T03:50:43.000Z,16000.0
2022-12-19T03:51:43.000Z,16000.0
2022-12-19T03:52:44.000Z,16000.0
2022-12-19T03:53:43.000Z,16000.0
2022-12-19T03:54:44.000Z,16000.0
2022-12-19T03:55:43.000Z,16000.0
2022-12-19T03:56:43.000Z,16000.0
2022-12-19T03:57:44.000Z,16000.0
2022-12-19T03:58:43.000Z,16000.0
2022-12-19T03:59:43.000Z,16000.0
2022-12-19T04:00:44.000Z,16000.0
2022-12-19T04:01:43.000Z,16000.0
2022-12-19T04:02:43.000Z,16000.0
2022-12-19T04:03:44.000Z,16000.0
2022-12-19T04:04:43.000Z,16000.0
2022-12-19T04:05:44.000Z,16000.0
2022-12-19T04:06:43.000Z,16000.0
2022-12-19T04:07:43.000Z,16000.0
2022-12-19T04:08:44.000Z,16000.0
2022-12-19T04:09:43.000Z,16000.0
2022-12-19T04:10:43.000Z,16000.0
2022-12-19T04:11:44.000Z,16000.0
2022-12-19T04:12:43.000Z,16000.0
2022-12-19T04:13:44.000Z,16000.0
2022-12-19T04:14:43.000Z,16000.0
2022-12-19T04:15:43.000Z,16000.0
2022-12-19T04:16:44.000Z,16000.0
2022-12-19T04:17:43.000Z,16000.0
2022-12-19T04:18:44.000Z,16000.0
2022-12-19T04:19:43.000Z,16000.0
2022-12-19T04:20:43.000Z,16000.0
2022-12-19T04:21:44.000Z,16000.0
2022-12-19T04:22:43.000Z,16000.0
2022-12-19T04:23:43.000Z,16000.0
2022-12-19T04:24:44.000Z,16000.0
2022-12-19T04:25:43.000Z,16000.0
2022-12-19T04:26:44.000Z,16000.0
2022-12-19T04:27:43.000Z,16000.0
2022-12-19T04:28:43.000Z,16000.0
2022-12-19T04:29:44.000Z,16000.0
2022-12-19T04:30:43.000Z,16000.0
2022-12-19T04:31:44.000Z,16000.0
2022-12-19T04:32:44.000Z,15648.0
2022-12-19T04:33:43.000Z,15211.0
2022-12-19T04:34:44.000Z,16000.0
2022-12-19T04:35:43.000Z,16000.0
2022-12-19T04:36:43.000Z,16000.0
2022-12-19T04:37:44.000Z,16000.0
2022-12-19T04:38:43.000Z,15921.0
2022-12-19T04:39:44.000Z,15201.0
2022-12-19T04:40:43.000Z,14180.0
2022-12-19T04:41:43.000Z,13301.0
2022-12-19T04:42:44.000Z,13764.0
2022-12-19T04:43:43.000Z,13668.0
2022-12-19T04:44:44.000Z,13348.0
2022-12-19T04:45:43.000Z,13210.0
2022-12-19T04:46:43.000Z,12415.0
2022-12-19T04:47:44.000Z,13255.0
2022-12-19T04:48:43.000Z,12863.0
2022-12-19T04:49:43.000Z,12362.0
2022-12-19T04:50:44.000Z,13488.0
2022-12-19T04:51:43.000Z,12554.0
2022-12-19T04:52:44.000Z,12649.0
2022-12-19T04:53:43.000Z,12745.0
2022-12-19T04:54:43.000Z,13064.0
2022-12-19T04:55:44.000Z,13052.0
2022-12-19T04:56:43.000Z,12652.0
2022-12-19T04:57:43.000Z,12592.0
2022-12-19T04:58:44.000Z,12432.0
2022-12-19T04:59:43.000Z,11924.0
2022-12-19T05:00:44.000Z,14558.0
2022-12-19T05:01:44.000Z,13541.0
2022-12-19T05:02:43.000Z,13110.0
2022-12-19T05:03:44.000Z,14331.0
2022-12-19T05:04:43.000Z,14917.0
2022-12-19T05:05:43.000Z,14242.0
2022-12-19T05:06:44.000Z,15642.0
2022-12-19T05:07:43.000Z,15414.0
2022-12-19T05:08:43.000Z,16000.0
2022-12-19T05:09:44.000Z,16000.0
2022-12-19T05:10:43.000Z,16000.0
2022-12-19T05:11:44.000Z,16000.0
2022-12-19T05:12:43.000Z,16000.0
2022-12-19T05:13:43.000Z,16000.0
2022-12-19T05:14:44.000Z,16000.0
2022-12-19T05:15:43.000Z,16000.0
2022-12-19T05:16:44.000Z,16000.0
2022-12-19T05:17:43.000Z,16000.0
2022-12-19T05:18:43.000Z,16000.0
2022-12-19T05:19:44.000Z,16000.0
2022-12-19T05:20:43.000Z,16000.0
2022-12-19T05:21:43.000Z,16000.0
2022-12-19T05:22:44.000Z,16000.0
2022-12-19T05:23:43.000Z,16000.0
2022-12-19T05:24:44.000Z,16000.0
2022-12-19T05:25:43.000Z,16000.0
2022-12-19T05:26:43.000Z,16000.0
2022-12-19T05:27:44.000Z,16000.0
2022-12-19T05:28:43.000Z,16000.0
2022-12-19T05:29:44.000Z,16000.0
2022-12-19T05:30:43.000Z,16000.0
2022-12-19T05:31:43.000Z,16000.0
2022-12-19T05:32:44.000Z,16000.0
2022-12-19T05:33:43.000Z,16000.0
2022-12-19T05:34:43.000Z,16000.0
2022-12-19T05:35:44.000Z,16000.0
2022-12-19T05:36:43.000Z,16000.0
2022-12-19T05:37:44.000Z,16000.0
2022-12-19T05:38:43.000Z,16000.0
2022-12-19T05:39:43.000Z,16000.0
2022-12-19T05:40:44.000Z,16000.0
2022-12-19T05:41:43.000Z,16000.0
2022-12-19T05:42:44.000Z,16000.0
2022-12-19T05:43:44.000Z,16000.0
2022-12-19T05:44:43.000Z,16000.0
2022-12-19T05:45:44.000Z,16000.0
2022-12-19T05:46:43.000Z,16000.0
2022-12-19T05:47:43.000Z,16000.0
2022-12-19T05:48:44.000Z,16000.0
2022-12-19T05:49:43.000Z,16000.0
2022-12-19T05:50:44.000Z,16000.0
2022-12-19T05:51:43.000Z,15913.0
2022-12-19T05:52:43.000Z,15180.0
2022-12-19T05:53:44.000Z,13936.0
2022-12-19T05:54:43.000Z,13924.0
2022-12-19T05:55:44.000Z,14252.0
2022-12-19T05:56:43.000Z,15223.0
2022-12-19T05:57:43.000Z,15155.0
2022-12-19T05:58:44.000Z,15984.0
2022-12-19T05:59:43.000Z,15968.0
2022-12-19T06:00:43.000Z,16000.0
2022-12-19T06:01:44.000Z,16000.0
2022-12-19T06:02:43.000Z,16000.0
2022-12-19T06:03:43.000Z,16000.0
2022-12-19T06:04:44.000Z,16000.0
2022-12-19T06:05:43.000Z,16000.0
2022-12-19T06:06:44.000Z,16000.0
2022-12-19T06:07:44.000Z,16000.0
2022-12-19T06:08:43.000Z,16000.0
2022-12-19T06:09:44.000Z,16000.0
2022-12-19T06:10:43.000Z,16000.0
2022-12-19T06:11:43.000Z,16000.0
2022-12-19T06:12:44.000Z,16000.0
2022-12-19T06:13:43.000Z,16000.0
2022-12-19T06:14:44.000Z,16000.0
2022-12-19T06:15:43.000Z,16000.0
2022-12-19T06:16:43.000Z,16000.0
2022-12-19T06:17:44.000Z,16000.0
2022-12-19T06:18:43.000Z,16000.0
2022-12-19T06:19:43.000Z,16000.0
2022-12-19T06:20:44.000Z,16000.0
2022-12-19T06:21:43.000Z,16000.0
2022-12-19T06:22:44.000Z,16000.0
2022-12-19T06:23:43.000Z,16000.0
2022-12-19T06:24:43.000Z,16000.0
2022-12-19T06:25:44.000Z,16000.0
2022-12-19T06:26:43.000Z,16000.0
2022-12-19T06:27:44.000Z,13997.0
2022-12-19T06:28:44.000Z,13329.0
2022-12-19T06:29:43.000Z,13754.0
2022-12-19T06:30:44.000Z,13053.0
2022-12-19T06:31:43.000Z,12289.0
2022-12-19T06:32:43.000Z,12030.0
2022-12-19T06:33:44.000Z,12358.0
2022-12-19T06:34:43.000Z,11222.0
2022-12-19T06:35:44.000Z,10607.0
2022-12-19T06:36:43.000Z,11407.0
2022-12-19T06:37:43.000Z,11789.0
2022-12-19T06:38:44.000Z,11521.0
2022-12-19T06:39:43.000Z,11402.0
2022-12-19T06:40:44.000Z,10657.0
2022-12-19T06:41:43.000Z,10620.0
2022-12-19T06:42:43.000Z,9735.0
2022-12-19T06:43:44.000Z,9724.0
2022-12-19T06:44:43.000Z,9594.0
2022-12-19T06:45:43.000Z,9979.0
2022-12-19T06:46:44.000Z,9600.0
2022-12-19T06:47:43.000Z,9146.0
2022-12-19T06:48:44.000Z,8858.0
2022-12-19T06:49:43.000Z,9010.0
2022-12-19T06:50:43.000Z,8269.0
2022-12-19T06:51:44.000Z,8478.0
2022-12-19T06:52:43.000Z,8349.0
2022-12-19T06:53:44.000Z,8318.0
2022-12-19T06:54:44.000Z,8375.0
2022-12-19T06:55:43.000Z,8418.0
2022-12-19T06:56:44.000Z,8162.0
2022-12-19T06:57:43.000Z,8079.0
2022-12-19T06:58:43.000Z,7807.0
2022-12-19T06:59:44.000Z,7386.0
2022-12-19T07:00:43.000Z,7537.0
2022-12-19T07:01:43.000Z,7289.0
2022-12-19T07:02:44.000Z,7163.0
2022-12-19T07:03:43.000Z,7457.0
2022-12-19T07:04:44.000Z,7612.0
2022-12-19T07:05:43.000Z,7377.0
2022-12-19T07:06:43.000Z,7353.0
2022-12-19T07:07:44.000Z,7733.0
2022-12-19T07:08:43.000Z,7392.0
2022-12-19T07:09:43.000Z,6827.0
2022-12-19T07:10:44.000Z,6592.0
2022-12-19T07:11:43.000Z,6175.0
2022-12-19T07:12:44.000Z,6277.0
2022-12-19T07:13:43.000Z,6435.0
2022-12-19T07:14:43.000Z,6131.0
2022-12-19T07:15:44.000Z,6109.0
2022-12-19T07:16:43.000Z,5853.0
2022-12-19T07:17:44.000Z,5757.0
2022-12-19T07:18:44.000Z,5808.0
2022-12-19T07:19:43.000Z,5730.0
2022-12-19T07:20:44.000Z,5819.0
2022-12-19T07:21:43.000Z,5844.0
2022-12-19T07:22:43.000Z,5592.0
2022-12-19T07:23:44.000Z,5542.0
2022-12-19T07:24:43.000Z,5533.0
2022-12-19T07:25:44.000Z,5600.0
2022-12-19T07:26:43.000Z,5248.0
2022-12-19T07:27:43.000Z,5056.0
2022-12-19T07:28:44.000Z,5193.0
2022-12-19T07:29:43.000Z,5095.0
2022-12-19T07:30:43.000Z,4896.0
2022-12-19T07:31:44.000Z,5366.0
2022-12-19T07:32:43.000Z,5395.0
2022-12-19T07:33:44.000Z,5709.0
2022-12-19T07:34:43.000Z,5614.0
2022-12-19T07:35:43.000Z,5324.0
2022-12-19T07:36:44.000Z,5443.0
2022-12-19T07:37:43.000Z,5525.0
2022-12-19T07:38:44.000Z,5671.0
2022-12-19T07:39:43.000Z,5687.0
2022-12-19T07:40:43.000Z,5876.0
2022-12-19T07:41:44.000Z,6007.0
2022-12-19T07:42:43.000Z,6074.0
2022-12-19T07:43:44.000Z,6346.0
2022-12-19T07:44:44.000Z,6816.0
2022-12-19T07:45:43.000Z,6347.0
2022-12-19T07:46:44.000Z,6325.0
2022-12-19T07:47:43.000Z,6944.0
2022-12-19T07:48:43.000Z,6813.0
2022-12-19T07:49:44.000Z,6605.0
2022-12-19T07:50:43.000Z,6462.0
2022-12-19T07:51:44.000Z,6197.0
2022-12-19T07:52:43.000Z,5986.0
2022-12-19T07:53:43.000Z,6048.0
2022-12-19T07:54:44.000Z,6209.0
2022-12-19T07:55:43.000Z,6271.0
2022-12-19T07:56:43.000Z,6499.0
2022-12-19T07:57:44.000Z,6776.0
2022-12-19T07:58:43.000Z,7228.0
2022-12-19T07:59:44.000Z,6914.0
2022-12-19T08:00:43.000Z,6901.0
2022-12-19T08:01:43.000Z,6702.0
2022-12-19T08:02:44.000Z,7164.0
2022-12-19T08:03:43.000Z,7787.0
2022-12-19T08:04:43.000Z,7060.0
2022-12-19T08:05:44.000Z,7440.0
2022-12-19T08:06:43.000Z,7514.0
2022-12-19T08:07:44.000Z,7760.0
2022-12-19T08:08:44.000Z,8060.0
2022-12-19T08:09:43.000Z,7653.0
2022-12-19T08:10:44.000Z,7336.0
2022-12-19T08:11:43.000Z,7178.0
2022-12-19T08:12:43.000Z,7516.0
2022-12-19T08:13:44.000Z,7692.0
2022-12-19T08:14:43.000Z,7841.0
2022-12-19T08:15:44.000Z,7981.0
2022-12-19T08:16:43.000Z,7651.0
2022-12-19T08:17:43.000Z,7624.0
2022-12-19T08:18:44.000Z,8039.0
2022-12-19T08:19:43.000Z,8365.0
2022-12-19T08:20:43.000Z,8052.0
2022-12-19T08:21:44.000Z,8168.0
2022-12-19T08:22:43.000Z,8319.0
2022-12-19T08:23:44.000Z,8134.0
2022-12-19T08:24:43.000Z,8176.0
2022-12-19T08:25:43.000Z,8578.0
2022-12-19T08:26:44.000Z,7913.0
2022-12-19T08:27:43.000Z,8101.0
2022-12-19T08:28:44.000Z,8508.0
2022-12-19T08:29:43.000Z,8610.0
2022-12-19T08:30:43.000Z,9318.0
2022-12-19T08:31:44.000Z,10198.0
2022-12-19T08:32:43.000Z,11052.0
2022-12-19T08:33:43.000Z,11280.0
2022-12-19T08:34:44.000Z,11428.0
2022-12-19T08:35:43.000Z,11549.0
2022-12-19T08:36:44.000Z,11990.0
2022-12-19T08:37:43.000Z,11731.0
2022-12-19T08:38:43.000Z,11978.0
2022-12-19T08:39:44.000Z,11663.0
2022-12-19T08:40:43.000Z,12112.0
2022-12-19T08:41:44.000Z,13751.0
2022-12-19T08:42:43.000Z,14741.0
2022-12-19T08:43:43.000Z,13961.0
2022-12-19T08:44:44.000Z,13439.0
2022-12-19T08:45:43.000Z,12022.0
2022-12-19T08:46:43.000Z,11058.0
2022-12-19T08:47:44.000Z,11678.0
2022-12-19T08:48:43.000Z,11399.0
2022-12-19T08:49:44.000Z,10574.0
2022-12-19T08:50:43.000Z,11398.0
2022-12-19T08:51:43.000Z,11502.0
2022-12-19T08:52:44.000Z,10976.0
2022-12-19T08:53:43.000Z,12068.0
2022-12-19T08:54:44.000Z,11139.0
2022-12-19T08:55:44.000Z,12917.0
2022-12-19T08:56:43.000Z,12672.0
2022-12-19T08:57:44.000Z,13256.0
2022-12-19T08:58:43.000Z,14017.0
2022-12-19T08:59:43.000Z,14775.0
2022-12-19T09:00:44.000Z,14744.0
2022-12-19T09:01:43.000Z,13533.0
2022-12-19T09:02:43.000Z,13448.0
2022-12-19T09:03:44.000Z,13541.0
2022-12-19T09:06:43.000Z,11813.0
2022-12-19T09:07:43.000Z,11216.0
2022-12-19T09:08:44.000Z,11919.0
2022-12-19T09:09:43.000Z,12735.0
2022-12-19T09:10:43.000Z,13240.0
2022-12-19T09:11:44.000Z,12717.0
2022-12-19T09:12:43.000Z,12679.0
2022-12-19T09:13:44.000Z,13172.0
2022-12-19T09:14:43.000Z,12525.0
2022-12-19T09:15:43.000Z,13191.0
2022-12-19T09:16:44.000Z,12776.0
2022-12-19T09:17:43.000Z,14831.0
2022-12-19T09:18:44.000Z,16000.0
2022-12-19T09:19:43.000Z,16000.0
2022-12-19T09:20:43.000Z,13722.0
2022-12-19T09:21:44.000Z,13821.0
2022-12-19T09:22:43.000Z,13238.0
2022-12-19T09:23:43.000Z,12946.0
2022-12-19T09:24:44.000Z,10952.0
2022-12-19T09:25:43.000Z,12751.0
2022-12-19T09:26:44.000Z,12862.0
2022-12-19T09:27:43.000Z,13823.0
2022-12-19T09:28:43.000Z,13337.0
2022-12-19T09:29:44.000Z,13725.0
2022-12-19T09:30:43.000Z,13431.0
2022-12-19T09:31:43.000Z,12396.0
2022-12-19T09:32:44.000Z,11644.0
2022-12-19T09:33:43.000Z,11742.0
2022-12-19T09:34:44.000Z,11616.0
2022-12-19T09:35:43.000Z,11969.0
2022-12-19T09:36:43.000Z,12889.0
2022-12-19T09:37:44.000Z,14288.0
2022-12-19T09:38:43.000Z,15465.0
2022-12-19T09:39:44.000Z,16000.0
2022-12-19T09:40:43.000Z,16000.0
2022-12-19T09:41:43.000Z,16000.0
2022-12-19T09:42:44.000Z,16000.0
2022-12-19T09:43:43.000Z,16000.0
2022-12-19T09:44:44.000Z,16000.0
2022-12-19T09:45:44.000Z,16000.0
2022-12-19T09:46:43.000Z,16000.0
2022-12-19T09:47:44.000Z,16000.0
2022-12-19T09:48:43.000Z,16000.0
2022-12-19T09:49:43.000Z,16000.0
2022-12-19T09:50:44.000Z,16000.0
2022-12-19T09:51:43.000Z,16000.0
2022-12-19T09:52:44.000Z,16000.0
2022-12-19T09:53:43.000Z,16000.0
2022-12-19T09:54:43.000Z,16000.0
2022-12-19T09:55:44.000Z,16000.0
2022-12-19T09:56:43.000Z,16000.0
2022-12-19T09:57:43.000Z,16000.0
2022-12-19T09:58:44.000Z,16000.0
2022-12-19T09:59:43.000Z,16000.0
2022-12-19T10:00:44.000Z,16000.0
2022-12-19T10:01:43.000Z,16000.0
2022-12-19T10:02:43.000Z,16000.0
2022-12-19T10:03:44.000Z,16000.0
2022-12-19T10:04:43.000Z,16000.0
2022-12-19T10:05:44.000Z,16000.0
2022-12-19T10:07:43.000Z,16000.0
2022-12-19T10:09:43.000Z,16000.0
2022-12-19T10:12:43.000Z,16000.0
2022-12-19T10:13:44.000Z,16000.0
2022-12-19T10:14:43.000Z,16000.0
2022-12-19T10:15:43.000Z,16000.0
2022-12-19T10:16:44.000Z,16000.0
2022-12-19T10:17:43.000Z,16000.0
2022-12-19T10:18:43.000Z,16000.0
2022-12-19T10:19:44.000Z,16000.0
2022-12-19T10:20:43.000Z,16000.0
2022-12-19T10:21:44.000Z,16000.0
2022-12-19T10:22:43.000Z,16000.0
2022-12-19T10:23:43.000Z,16000.0
2022-12-19T10:24:44.000Z,16000.0
2022-12-19T10:25:43.000Z,16000.0
2022-12-19T10:26:44.000Z,16000.0
2022-12-19T10:27:43.000Z,16000.0
2022-12-19T10:28:43.000Z,16000.0
2022-12-19T10:29:44.000Z,16000.0
2022-12-19T10:30:43.000Z,16000.0
2022-12-19T10:31:43.000Z,16000.0
2022-12-19T10:32:44.000Z,16000.0
2022-12-19T10:33:43.000Z,16000.0
2022-12-19T10:34:44.000Z,16000.0
2022-12-19T10:35:43.000Z,16000.0
2022-12-19T10:36:43.000Z,16000.0
2022-12-19T10:37:44.000Z,16000.0
2022-12-19T10:38:43.000Z,16000.0
2022-12-19T10:39:44.000Z,16000.0
2022-12-19T10:40:43.000Z,16000.0
2022-12-19T10:41:43.000Z,16000.0
2022-12-19T10:42:44.000Z,16000.0
2022-12-19T10:43:43.000Z,16000.0
2022-12-19T10:44:43.000Z,16000.0
2022-12-19T10:45:44.000Z,16000.0
2022-12-19T10:46:43.000Z,16000.0
2022-12-19T10:47:44.000Z,16000.0
2022-12-19T10:48:43.000Z,16000.0
2022-12-19T10:49:43.000Z,16000.0
2022-12-19T10:50:44.000Z,16000.0
2022-12-19T10:51:43.000Z,16000.0
2022-12-19T10:52:44.000Z,16000.0
2022-12-19T10:53:43.000Z,16000.0
2022-12-19T10:54:43.000Z,16000.0
2022-12-19T10:55:44.000Z,16000.0
2022-12-19T10:56:43.000Z,16000.0
2022-12-19T10:57:43.000Z,16000.0
2022-12-19T10:58:44.000Z,16000.0
2022-12-19T10:59:43.000Z,16000.0
2022-12-19T11:00:44.000Z,16000.0
2022-12-19T11:01:44.000Z,16000.0
2022-12-19T11:02:43.000Z,16000.0
2022-12-19T11:03:44.000Z,16000.0
2022-12-19T11:04:43.000Z,16000.0
2022-12-19T11:05:43.000Z,16000.0
2022-12-19T11:06:44.000Z,16000.0
2022-12-19T11:07:43.000Z,16000.0
2022-12-19T11:08:44.000Z,16000.0
2022-12-19T11:10:43.000Z,16000.0
2022-12-19T11:32:44.000Z,16000.0
2022-12-19T11:33:43.000Z,16000.0
2022-12-19T11:34:44.000Z,16000.0
2022-12-19T11:35:43.000Z,16000.0
2022-12-19T11:36:43.000Z,16000.0
2022-12-19T11:37:44.000Z,16000.0
2022-12-19T11:38:43.000Z,16000.0
2022-12-19T11:39:44.000Z,16000.0
2022-12-19T11:40:43.000Z,16000.0
2022-12-19T11:41:43.000Z,16000.0
2022-12-19T11:42:44.000Z,16000.0
2022-12-19T11:44:43.000Z,16000.0
2022-12-19T11:45:44.000Z,16000.0
2022-12-19T11:46:43.000Z,16000.0
2022-12-19T11:47:44.000Z,16000.0
2022-12-19T11:48:43.000Z,16000.0
2022-12-19T11:49:43.000Z,16000.0
2022-12-19T11:50:44.000Z,16000.0
2022-12-19T11:51:43.000Z,16000.0
2022-12-19T11:52:44.000Z,16000.0
2022-12-19T11:53:44.000Z,16000.0
2022-12-19T11:54:43.000Z,16000.0
2022-12-19T11:55:44.000Z,16000.0
2022-12-19T11:56:43.000Z,16000.0
2022-12-19T11:57:43.000Z,16000.0
2022-12-19T11:58:44.000Z,16000.0
2022-12-19T11:59:43.000Z,16000.0
2022-12-19T12:00:44.000Z,16000.0
2022-12-19T12:01:44.000Z,16000.0
2022-12-19T12:02:43.000Z,16000.0
2022-12-19T12:03:44.000Z,16000.0
2022-12-19T12:04:43.000Z,16000.0
2022-12-19T12:05:43.000Z,16000.0
2022-12-19T12:06:44.000Z,16000.0
2022-12-19T12:08:44.000Z,16000.0
2022-12-19T12:30:43.000Z,16000.0
2022-12-19T12:37:44.000Z,16000.0
2022-12-19T12:39:44.000Z,16000.0
2022-12-19T12:40:43.000Z,16000.0
2022-12-19T12:41:43.000Z,16000.0
2022-12-19T12:42:44.000Z,16000.0
2022-12-19T12:43:43.000Z,16000.0
2022-12-19T12:44:43.000Z,16000.0
2022-12-19T12:45:44.000Z,16000.0
2022-12-19T12:46:43.000Z,16000.0
2022-12-19T12:47:44.000Z,16000.0
2022-12-19T12:48:43.000Z,16000.0
2022-12-19T12:49:43.000Z,16000.0
2022-12-19T12:50:44.000Z,16000.0
2022-12-19T12:51:43.000Z,16000.0
2022-12-19T12:52:44.000Z,16000.0
2022-12-19T12:53:43.000Z,16000.0
2022-12-19T12:54:43.000Z,16000.0
2022-12-19T12:55:44.000Z,16000.0
2022-12-19T12:56:43.000Z,16000.0
2022-12-19T12:57:43.000Z,16000.0
2022-12-19T12:58:44.000Z,16000.0
2022-12-19T12:59:43.000Z,16000.0
2022-12-19T13:00:44.000Z,16000.0
2022-12-19T13:01:43.000Z,16000.0
2022-12-19T13:02:43.000Z,16000.0
2022-12-19T13:03:44.000Z,16000.0
2022-12-19T13:04:43.000Z,16000.0
2022-12-19T13:05:43.000Z,16000.0
2022-12-19T13:06:44.000Z,16000.0
2022-12-19T13:07:43.000Z,16000.0